Terminal Aerodrome Forecast
Issued by NWS Mt. Holly, NJ

Home | Current Version | Previous Version | Text Only | Print | Product List | Glossary On
Versions: 1 2 3 4 5 6 7 8 9 10 11 12 13 14 15 16 17 18 19 20 21 22 23 24 25 26
643
FTUS41 KPHI 220545 AAC
TAFTTN
TAF AMD
KTTN 220545Z 2206/2306 35009KT P6SM OVC035
     FM220800 02011KT P6SM OVC025
     FM221400 04010KT 5SM -RA OVC015
     FM221700 04010KT 2SM -RA BR OVC015
     FM222000 05009KT 1SM -RA BR OVC008
     FM230200 06008KT 3SM -DZ BR OVC010=

USA.gov is the U.S. government's official web portal to all federal, state and local government web resources and services.